Time;durP1;ratioP1;P1;durP2;ratioP2;P2;SDS_P1;SDS_P2;PMS_P1;PMS_P2;Temp;Humidity;BMP_temperature;BMP_pressure;BME280_temperature;BME280_humidity;BME280_pressure;Samples;Min_cycle;Max_cycle;Signal;HPM_P1;HPM_P2
2023/04/14 00:00:37;;;;;;;10.45;2.45;;;;;;;;;;5007110;28;20048;-73
2023/04/14 00:03:04;;;;;;;8.23;2.72;;;;;;;;;;5036524;28;20089;-73
2023/04/14 00:05:31;;;;;;;8.70;2.80;;;;;;;;;;5024214;28;21029;-73
2023/04/14 00:07:57;;;;;;;14.00;2.78;;;;;;;;;;5037425;28;20101;-73
2023/04/14 00:10:24;;;;;;;16.00;3.10;;;;;;;;;;5021191;28;22167;-73
2023/04/14 00:12:50;;;;;;;11.13;2.38;;;;;;;;;;5040391;28;20036;-73
2023/04/14 00:15:17;;;;;;;13.80;3.08;;;;;;;;;;4987923;28;20044;-73
2023/04/14 00:17:43;;;;;;;11.77;2.70;;;;;;;;;;5018359;28;20824;-73
2023/04/14 00:20:09;;;;;;;11.60;3.17;;;;;;;;;;5022485;28;20049;-73
2023/04/14 00:22:35;;;;;;;11.18;2.60;;;;;;;;;;5039614;28;20461;-73
2023/04/14 00:25:01;;;;;;;9.15;3.22;;;;;;;;;;5021358;28;20643;-73
2023/04/14 00:27:28;;;;;;;15.20;3.40;;;;;;;;;;5039527;28;20068;-73
2023/04/14 00:29:54;;;;;;;14.93;2.85;;;;;;;;;;5017106;28;20086;-73
2023/04/14 00:32:20;;;;;;;8.55;3.17;;;;;;;;;;5003086;28;20135;-73
2023/04/14 00:34:46;;;;;;;10.77;2.33;;;;;;;;;;5040966;28;20825;-73
2023/04/14 00:37:12;;;;;;;10.18;2.63;;;;;;;;;;5022510;28;22083;-73
2023/04/14 00:39:38;;;;;;;15.73;3.03;;;;;;;;;;5025098;28;20052;-73
2023/04/14 00:42:04;;;;;;;16.40;2.50;;;;;;;;;;5021991;28;20045;-73
2023/04/14 00:44:30;;;;;;;11.32;2.55;;;;;;;;;;5042135;28;20037;-73
2023/04/14 00:46:57;;;;;;;16.85;2.90;;;;;;;;;;5025938;28;20043;-73
2023/04/14 00:49:24;;;;;;;15.20;2.65;;;;;;;;;;5007211;28;20056;-73
2023/04/14 00:51:50;;;;;;;10.88;3.60;;;;;;;;;;5009903;28;20072;-73
2023/04/14 00:54:17;;;;;;;13.18;3.05;;;;;;;;;;5046551;28;20143;-73
2023/04/14 00:56:44;;;;;;;8.68;2.20;;;;;;;;;;5045316;28;20036;-73
2023/04/14 00:59:11;;;;;;;7.43;2.58;;;;;;;;;;5025581;28;21923;-73
2023/04/14 01:01:37;;;;;;;9.68;2.72;;;;;;;;;;5026295;28;20113;-73
2023/04/14 01:04:03;;;;;;;8.88;2.40;;;;;;;;;;5025709;28;20488;-73
2023/04/14 01:06:29;;;;;;;7.60;2.92;;;;;;;;;;5044437;28;20040;-73
2023/04/14 01:08:56;;;;;;;10.52;2.67;;;;;;;;;;5045219;28;20052;-73
2023/04/14 01:11:28;;;;;;;15.27;3.45;;;;;;;;;;5041811;28;20176;-73
2023/04/14 01:13:54;;;;;;;11.70;2.85;;;;;;;;;;5007706;28;20114;-73
2023/04/14 01:16:29;;;;;;;9.38;2.58;;;;;;;;;;5041506;28;20561;-73
2023/04/14 01:19:17;;;;;;;11.40;3.22;;;;;;;;;;5041928;28;20040;-73
2023/04/14 01:21:46;;;;;;;8.60;2.70;;;;;;;;;;5043175;28;20408;-73
2023/04/14 01:24:12;;;;;;;19.08;3.80;;;;;;;;;;5023840;28;21152;-73
2023/04/14 01:26:39;;;;;;;10.98;2.90;;;;;;;;;;5022317;28;20044;-73
2023/04/14 01:29:11;;;;;;;12.63;3.20;;;;;;;;;;5022054;28;20044;-73
2023/04/14 01:31:41;;;;;;;8.88;2.47;;;;;;;;;;5022596;28;20595;-73
2023/04/14 01:34:21;;;;;;;9.20;3.83;;;;;;;;;;5022573;28;20038;-73
2023/04/14 01:36:57;;;;;;;8.73;2.88;;;;;;;;;;5041402;28;20052;-73
2023/04/14 01:39:24;;;;;;;9.73;3.15;;;;;;;;;;5021903;28;20085;-73
2023/04/14 01:41:54;;;;;;;11.30;3.15;;;;;;;;;;5022563;28;20048;-73
2023/04/14 01:44:21;;;;;;;10.70;2.95;;;;;;;;;;5023592;28;20053;-73
2023/04/14 01:46:49;;;;;;;9.15;3.60;;;;;;;;;;5020204;28;20510;-73
2023/04/14 01:49:16;;;;;;;10.23;3.03;;;;;;;;;;5022656;28;20520;-73
2023/04/14 01:51:43;;;;;;;9.82;3.33;;;;;;;;;;5039062;28;22137;-73
2023/04/14 01:54:11;;;;;;;9.80;3.17;;;;;;;;;;5039744;28;20048;-73
2023/04/14 01:56:38;;;;;;;16.05;3.13;;;;;;;;;;5020748;28;20074;-73
2023/04/14 01:59:04;;;;;;;8.65;3.08;;;;;;;;;;5020537;28;20063;-73
2023/04/14 02:01:31;;;;;;;18.60;3.35;;;;;;;;;;5042381;28;20051;-73
2023/04/14 02:03:58;;;;;;;10.90;2.80;;;;;;;;;;5025813;28;20083;-73
2023/04/14 02:06:26;;;;;;;13.63;3.15;;;;;;;;;;5042846;28;20052;-73
2023/04/14 02:08:52;;;;;;;16.40;3.10;;;;;;;;;;5023814;28;20048;-73
2023/04/14 02:11:19;;;;;;;10.40;3.10;;;;;;;;;;5043464;28;20055;-73
2023/04/14 02:13:46;;;;;;;15.10;3.20;;;;;;;;;;5023512;28;20040;-73
2023/04/14 02:16:14;;;;;;;10.13;2.80;;;;;;;;;;5025046;28;20101;-73
2023/04/14 02:18:40;;;;;;;9.07;3.08;;;;;;;;;;5024319;28;20060;-73
2023/04/14 02:21:08;;;;;;;14.57;3.22;;;;;;;;;;5044124;28;20086;-73
2023/04/14 02:23:34;;;;;;;11.75;3.50;;;;;;;;;;5026241;28;20743;-73
2023/04/14 02:26:04;;;;;;;13.25;3.63;;;;;;;;;;5001329;28;20036;-73
2023/04/14 02:28:33;;;;;;;9.90;3.42;;;;;;;;;;5021998;28;20049;-73
2023/04/14 02:31:00;;;;;;;10.85;3.80;;;;;;;;;;5022580;28;20056;-73
2023/04/14 02:33:31;;;;;;;11.05;3.88;;;;;;;;;;5043223;28;20045;-73
2023/04/14 02:36:07;;;;;;;10.80;3.30;;;;;;;;;;5043499;28;20040;-73
2023/04/14 02:38:38;;;;;;;12.80;3.70;;;;;;;;;;5006850;28;20615;-73
2023/04/14 02:41:19;;;;;;;11.80;3.97;;;;;;;;;;5046291;28;20076;-73
2023/04/14 02:43:53;;;;;;;8.85;3.47;;;;;;;;;;5042249;28;20482;-73
2023/04/14 02:46:19;;;;;;;;;;;;;;;;;;5024066;28;20095;-73
2023/04/14 02:48:46;;;;;;;14.32;3.60;;;;;;;;;;5035527;28;19932;-73
2023/04/14 02:51:13;;;;;;;7.25;3.67;;;;;;;;;;5022347;28;20680;-73
2023/04/14 02:53:40;;;;;;;10.80;3.90;;;;;;;;;;5022285;28;20051;-73
2023/04/14 02:56:06;;;;;;;9.52;3.80;;;;;;;;;;5022991;28;20044;-73
2023/04/14 02:58:33;;;;;;;15.45;4.28;;;;;;;;;;5023296;28;20064;-73
2023/04/14 03:01:00;;;;;;;9.68;3.63;;;;;;;;;;5021382;28;20053;-73
2023/04/14 03:03:27;;;;;;;11.50;3.88;;;;;;;;;;5023530;28;20045;-73
2023/04/14 03:05:53;;;;;;;11.20;4.07;;;;;;;;;;5039908;28;20157;-73
2023/04/14 03:08:20;;;;;;;9.68;3.80;;;;;;;;;;5024190;28;20053;-73
2023/04/14 03:10:47;;;;;;;9.88;3.65;;;;;;;;;;5034848;28;20069;-73
2023/04/14 03:13:14;;;;;;;13.77;3.63;;;;;;;;;;5036323;28;20040;-73
2023/04/14 03:15:41;;;;;;;10.32;3.67;;;;;;;;;;5034682;28;20064;-73
2023/04/14 03:18:08;;;;;;;11.88;4.13;;;;;;;;;;5015115;28;20040;-73
2023/04/14 03:20:35;;;;;;;11.60;4.05;;;;;;;;;;5032153;28;20101;-74
2023/04/14 03:23:05;;;;;;;10.35;3.83;;;;;;;;;;5021306;28;20048;-73
2023/04/14 03:25:36;;;;;;;11.85;3.67;;;;;;;;;;5038169;28;20127;-73
2023/04/14 03:28:04;;;;;;;11.60;3.50;;;;;;;;;;5032240;28;20067;-73
2023/04/14 03:30:31;;;;;;;11.88;4.13;;;;;;;;;;5035165;28;20045;-73
2023/04/14 03:33:08;;;;;;;9.68;4.53;;;;;;;;;;5006571;28;20041;-73
2023/04/14 03:35:35;;;;;;;18.65;4.72;;;;;;;;;;5009379;28;20660;-73
2023/04/14 03:38:07;;;;;;;16.88;4.20;;;;;;;;;;5005994;28;20067;-73
2023/04/14 03:40:34;;;;;;;9.52;3.55;;;;;;;;;;5016646;28;20087;-73
2023/04/14 03:43:02;;;;;;;13.32;3.75;;;;;;;;;;5034668;28;20169;-73
2023/04/14 03:45:28;;;;;;;13.05;3.92;;;;;;;;;;5036864;28;20524;-73
2023/04/14 03:47:57;;;;;;;12.85;3.63;;;;;;;;;;5015613;28;20073;-73
2023/04/14 03:50:26;;;;;;;10.27;4.10;;;;;;;;;;5030649;28;20650;-73
2023/04/14 03:52:53;;;;;;;11.75;4.72;;;;;;;;;;5004579;28;20083;-73
2023/04/14 03:55:20;;;;;;;9.57;3.40;;;;;;;;;;5033930;28;22282;-73
2023/04/14 03:57:47;;;;;;;11.98;4.10;;;;;;;;;;5015547;28;20553;-73
2023/04/14 04:00:14;;;;;;;9.07;4.03;;;;;;;;;;4995562;28;20657;-73
2023/04/14 04:02:44;;;;;;;15.55;4.18;;;;;;;;;;5015296;28;20067;-74
2023/04/14 04:05:10;;;;;;;8.40;3.90;;;;;;;;;;5009817;28;20060;-73
2023/04/14 04:07:38;;;;;;;7.80;3.65;;;;;;;;;;5018386;28;20090;-73
2023/04/14 04:10:05;;;;;;;7.78;3.95;;;;;;;;;;5017625;28;20044;-72
2023/04/14 04:12:31;;;;;;;11.70;3.83;;;;;;;;;;5024267;28;20790;-73
2023/04/14 04:14:57;;;;;;;10.45;3.95;;;;;;;;;;5031115;28;20072;-73
2023/04/14 04:17:24;;;;;;;7.50;3.63;;;;;;;;;;4994982;28;20044;-73
2023/04/14 04:19:51;;;;;;;7.35;3.42;;;;;;;;;;5037130;28;20040;-73
2023/04/14 04:22:20;;;;;;;10.93;3.83;;;;;;;;;;5018082;28;20044;-73
2023/04/14 04:24:46;;;;;;;11.23;4.90;;;;;;;;;;5016216;28;20101;-73
2023/04/14 04:27:12;;;;;;;11.27;4.95;;;;;;;;;;5016794;28;20082;-73
2023/04/14 04:29:39;;;;;;;11.82;4.82;;;;;;;;;;5018308;28;20139;-74
2023/04/14 04:32:05;;;;;;;10.43;4.30;;;;;;;;;;5035237;28;20093;-74
2023/04/14 04:34:32;;;;;;;10.43;4.38;;;;;;;;;;5020340;28;21578;-73
2023/04/14 04:37:00;;;;;;;10.13;4.18;;;;;;;;;;5038120;28;20359;-73
2023/04/14 04:39:26;;;;;;;7.57;3.88;;;;;;;;;;5023175;28;20052;-74
2023/04/14 04:42:05;;;;;;;8.27;4.18;;;;;;;;;;5020476;28;20071;-74
2023/04/14 04:44:32;;;;;;;6.55;3.78;;;;;;;;;;5019743;28;20048;-73
2023/04/14 04:46:59;;;;;;;11.00;3.80;;;;;;;;;;5017845;28;20044;-73
2023/04/14 04:49:25;;;;;;;10.23;3.80;;;;;;;;;;5039470;28;20392;-73
2023/04/14 04:51:51;;;;;;;11.45;4.20;;;;;;;;;;5035790;28;20049;-74
2023/04/14 04:54:17;;;;;;;9.73;3.70;;;;;;;;;;5004273;28;20049;-73
2023/04/14 04:56:43;;;;;;;9.02;4.00;;;;;;;;;;5010880;28;20040;-73
2023/04/14 04:59:10;;;;;;;8.70;3.88;;;;;;;;;;5014685;28;20055;-73
2023/04/14 05:01:37;;;;;;;10.85;3.50;;;;;;;;;;5016016;28;20102;-73
2023/04/14 05:04:03;;;;;;;7.82;3.67;;;;;;;;;;5026161;28;20452;-73
2023/04/14 05:06:29;;;;;;;12.05;4.30;;;;;;;;;;5011212;28;20065;-73
2023/04/14 05:08:55;;;;;;;7.03;3.47;;;;;;;;;;5010842;28;20134;-73
2023/04/14 05:11:21;;;;;;;10.77;3.85;;;;;;;;;;5010850;28;20051;-73
2023/04/14 05:13:47;;;;;;;9.18;3.70;;;;;;;;;;4994864;28;20079;-73
2023/04/14 05:16:14;;;;;;;8.30;3.78;;;;;;;;;;5011252;28;20036;-73
2023/04/14 05:18:40;;;;;;;8.57;4.53;;;;;;;;;;5033781;28;20044;-73
2023/04/14 05:21:11;;;;;;;6.35;3.97;;;;;;;;;;5008171;28;20044;-73
2023/04/14 05:23:38;;;;;;;9.63;5.03;;;;;;;;;;4991652;28;20063;-73
2023/04/14 05:26:05;;;;;;;11.45;3.75;;;;;;;;;;5035100;28;20468;-73
2023/04/14 05:28:31;;;;;;;10.40;4.47;;;;;;;;;;5015878;28;20041;-72
2023/04/14 05:30:58;;;;;;;8.85;4.20;;;;;;;;;;5013676;28;20059;-73
2023/04/14 05:33:24;;;;;;;11.15;3.83;;;;;;;;;;5034812;28;20511;-73
2023/04/14 05:35:50;;;;;;;11.02;5.05;;;;;;;;;;5035890;28;20036;-73
2023/04/14 05:38:17;;;;;;;7.00;3.78;;;;;;;;;;5018634;28;20040;-72
2023/04/14 05:40:43;;;;;;;6.47;3.83;;;;;;;;;;5019379;28;20048;-73
2023/04/14 05:43:09;;;;;;;8.15;3.90;;;;;;;;;;5038786;28;20169;-74
2023/04/14 05:45:35;;;;;;;11.30;4.43;;;;;;;;;;5019022;28;20052;-73
2023/04/14 05:48:02;;;;;;;16.98;4.18;;;;;;;;;;5025474;28;20052;-73
2023/04/14 05:50:28;;;;;;;10.13;3.88;;;;;;;;;;5024974;28;20405;-74
2023/04/14 05:52:54;;;;;;;9.38;3.95;;;;;;;;;;5042180;28;20239;-72
2023/04/14 05:55:20;;;;;;;13.05;4.50;;;;;;;;;;5024553;28;20040;-72
2023/04/14 05:57:47;;;;;;;7.85;4.00;;;;;;;;;;5025358;28;20638;-73
2023/04/14 06:00:13;;;;;;;6.95;3.53;;;;;;;;;;5021728;28;20135;-73
2023/04/14 06:02:40;;;;;;;9.50;4.82;;;;;;;;;;5023289;28;20055;-73
2023/04/14 06:05:07;;;;;;;8.48;4.00;;;;;;;;;;5041237;28;20701;-72
2023/04/14 06:07:34;;;;;;;11.70;4.80;;;;;;;;;;5024102;28;20048;-74
2023/04/14 06:10:00;;;;;;;9.43;3.88;;;;;;;;;;5041738;28;20530;-73
2023/04/14 06:12:27;;;;;;;5.50;4.03;;;;;;;;;;5040269;28;20480;-73
2023/04/14 06:14:53;;;;;;;13.05;4.70;;;;;;;;;;5040745;28;20043;-72
2023/04/14 06:17:20;;;;;;;10.35;4.20;;;;;;;;;;5018422;28;20044;-74
2023/04/14 06:19:47;;;;;;;10.70;5.10;;;;;;;;;;5019191;28;20404;-73
2023/04/14 06:22:27;;;;;;;15.88;4.70;;;;;;;;;;5038315;28;20097;-73
2023/04/14 06:24:54;;;;;;;10.30;4.28;;;;;;;;;;5019718;28;20135;-73
2023/04/14 06:27:20;;;;;;;9.25;4.10;;;;;;;;;;5012086;28;20431;-73
2023/04/14 06:29:46;;;;;;;15.07;4.40;;;;;;;;;;5019601;28;20444;-73
2023/04/14 06:32:12;;;;;;;6.72;3.28;;;;;;;;;;5034461;28;20044;-73
2023/04/14 06:34:38;;;;;;;7.80;3.35;;;;;;;;;;5037519;28;20264;-74
2023/04/14 06:37:04;;;;;;;9.43;3.95;;;;;;;;;;5019583;28;20075;-73
2023/04/14 06:39:30;;;;;;;9.90;3.72;;;;;;;;;;5036062;28;20120;-73
2023/04/14 06:41:57;;;;;;;10.40;3.35;;;;;;;;;;5002834;28;20052;-74
2023/04/14 06:44:23;;;;;;;11.70;3.08;;;;;;;;;;5034998;28;20056;-74
2023/04/14 06:46:49;;;;;;;9.30;3.15;;;;;;;;;;5018574;28;20060;-73
2023/04/14 06:49:16;;;;;;;8.73;2.95;;;;;;;;;;5018278;28;20405;-74
2023/04/14 06:51:42;;;;;;;5.60;2.45;;;;;;;;;;5038816;28;20114;-73
2023/04/14 06:54:08;;;;;;;6.40;2.65;;;;;;;;;;5023555;28;20167;-74
2023/04/14 06:56:34;;;;;;;13.55;3.35;;;;;;;;;;5026638;28;20117;-74
2023/04/14 06:59:00;;;;;;;12.48;3.15;;;;;;;;;;5043843;28;20051;-74
2023/04/14 07:01:26;;;;;;;7.35;3.70;;;;;;;;;;5044110;28;20347;-73
2023/04/14 07:03:52;;;;;;;14.23;3.33;;;;;;;;;;5047039;28;20052;-73
2023/04/14 07:06:18;;;;;;;6.47;2.58;;;;;;;;;;5026601;28;20703;-73
2023/04/14 07:08:45;;;;;;;10.05;3.30;;;;;;;;;;5030588;28;20048;-72
2023/04/14 07:11:11;;;;;;;10.82;3.28;;;;;;;;;;5047558;28;20040;-73
2023/04/14 07:13:38;;;;;;;11.60;3.25;;;;;;;;;;5045551;28;20165;-73
2023/04/14 07:16:07;;;;;;;9.35;2.90;;;;;;;;;;5025769;28;21793;-73
2023/04/14 07:18:34;;;;;;;12.50;3.00;;;;;;;;;;5047219;28;20523;-72
2023/04/14 07:21:00;;;;;;;13.73;2.70;;;;;;;;;;5012996;28;20101;-72
2023/04/14 07:23:27;;;;;;;10.65;2.65;;;;;;;;;;5047501;28;20040;-73
2023/04/14 07:25:54;;;;;;;8.52;2.40;;;;;;;;;;5026857;28;20036;-72
2023/04/14 07:28:21;;;;;;;11.75;2.25;;;;;;;;;;5025831;28;20106;-72
2023/04/14 07:30:48;;;;;;;6.72;2.10;;;;;;;;;;5045668;28;20045;-72
2023/04/14 07:33:17;;;;;;;10.85;2.03;;;;;;;;;;5045158;28;21695;-72
2023/04/14 07:35:44;;;;;;;13.23;2.40;;;;;;;;;;5045940;28;20124;-72
2023/04/14 07:38:10;;;;;;;8.63;2.08;;;;;;;;;;5027069;28;20103;-72
2023/04/14 07:40:36;;;;;;;11.02;2.13;;;;;;;;;;5006095;28;20044;-72
2023/04/14 07:43:02;;;;;;;16.52;1.90;;;;;;;;;;5005972;28;20101;-72
2023/04/14 07:45:28;;;;;;;10.65;2.40;;;;;;;;;;5013471;28;20083;-72
2023/04/14 07:47:54;;;;;;;8.10;2.03;;;;;;;;;;5040351;28;20040;-73
2023/04/14 07:50:20;;;;;;;6.72;2.35;;;;;;;;;;5038589;28;20044;-73
2023/04/14 07:52:46;;;;;;;9.88;2.88;;;;;;;;;;5019233;28;20093;-73
2023/04/14 07:55:12;;;;;;;9.45;4.28;;;;;;;;;;5023176;28;20097;-74
2023/04/14 07:57:40;;;;;;;10.05;4.25;;;;;;;;;;5021812;28;20140;-74
2023/04/14 08:00:08;;;;;;;11.93;3.97;;;;;;;;;;5042396;28;20643;-74
2023/04/14 08:02:34;;;;;;;13.48;3.50;;;;;;;;;;5024357;28;20048;-74
2023/04/14 08:05:00;;;;;;;7.20;3.97;;;;;;;;;;5001312;28;20067;-74
2023/04/14 08:07:30;;;;;;;11.70;4.18;;;;;;;;;;5042197;28;20213;-73
2023/04/14 08:09:56;;;;;;;9.43;4.00;;;;;;;;;;5021134;28;20148;-73
2023/04/14 08:12:25;;;;;;;10.10;3.65;;;;;;;;;;5041117;28;20048;-74
2023/04/14 08:14:55;;;;;;;13.93;4.47;;;;;;;;;;5043807;28;20044;-73
2023/04/14 08:17:22;;;;;;;11.63;4.28;;;;;;;;;;5023095;28;20162;-73
2023/04/14 08:19:48;;;;;;;12.63;3.90;;;;;;;;;;5003100;28;20052;-74
2023/04/14 08:22:14;;;;;;;12.45;3.80;;;;;;;;;;5043204;28;20129;-73
2023/04/14 08:24:40;;;;;;;16.95;3.97;;;;;;;;;;5040739;28;20488;-74
2023/04/14 08:27:06;;;;;;;10.68;4.07;;;;;;;;;;5017755;28;20048;-74
2023/04/14 08:29:33;;;;;;;5.85;3.90;;;;;;;;;;5001213;28;20036;-74
2023/04/14 08:31:59;;;;;;;10.70;3.90;;;;;;;;;;5024942;28;20389;-73
2023/04/14 08:34:25;;;;;;;14.77;4.40;;;;;;;;;;5018282;28;20044;-73
2023/04/14 08:36:51;;;;;;;8.25;4.18;;;;;;;;;;5042677;28;20052;-73
2023/04/14 08:39:17;;;;;;;10.55;4.28;;;;;;;;;;5041286;28;20047;-73
2023/04/14 08:41:43;;;;;;;11.43;4.38;;;;;;;;;;5042185;28;20056;-74
2023/04/14 08:44:09;;;;;;;8.73;3.95;;;;;;;;;;5022298;28;20040;-74
2023/04/14 08:46:36;;;;;;;13.50;3.70;;;;;;;;;;5016198;28;20047;-74
2023/04/14 08:49:02;;;;;;;13.10;3.75;;;;;;;;;;5023465;28;20175;-74
2023/04/14 08:51:31;;;;;;;9.20;3.15;;;;;;;;;;5025761;28;20572;-73
2023/04/14 08:53:58;;;;;;;7.18;2.10;;;;;;;;;;5024572;28;20464;-72
2023/04/14 08:56:24;;;;;;;12.57;3.03;;;;;;;;;;5019644;28;20164;-73
2023/04/14 08:58:50;;;;;;;9.32;2.70;;;;;;;;;;5025213;28;20044;-73
2023/04/14 09:01:17;;;;;;;9.75;2.08;;;;;;;;;;5021044;28;20637;-73
2023/04/14 09:03:44;;;;;;;8.75;2.35;;;;;;;;;;5022610;28;20515;-73
2023/04/14 09:06:10;;;;;;;8.55;1.98;;;;;;;;;;5018583;28;20041;-72
2023/04/14 09:08:36;;;;;;;10.27;2.20;;;;;;;;;;5017017;28;20036;-72
2023/04/14 09:11:03;;;;;;;13.05;1.80;;;;;;;;;;5016490;28;20040;-72
2023/04/14 09:13:30;;;;;;;9.50;2.13;;;;;;;;;;5037162;28;20044;-73
2023/04/14 09:15:56;;;;;;;8.00;2.03;;;;;;;;;;5021414;28;20040;-73
2023/04/14 09:18:22;;;;;;;12.05;2.25;;;;;;;;;;5040580;28;20136;-72
2023/04/14 09:20:49;;;;;;;11.25;1.80;;;;;;;;;;5019142;28;20653;-72
2023/04/14 09:23:15;;;;;;;9.65;2.40;;;;;;;;;;5019982;28;20056;-72
2023/04/14 09:25:41;;;;;;;9.02;1.80;;;;;;;;;;5038901;28;20040;-73
2023/04/14 09:28:08;;;;;;;9.65;3.28;;;;;;;;;;5019063;28;20052;-72
2023/04/14 09:30:34;;;;;;;6.85;1.67;;;;;;;;;;5041958;28;20055;-72
2023/04/14 09:33:07;;;;;;;8.52;1.98;;;;;;;;;;5021772;28;20480;-73
2023/04/14 09:35:49;;;;;;;6.88;1.88;;;;;;;;;;5040129;28;20045;-73
2023/04/14 09:38:30;;;;;;;6.72;1.52;;;;;;;;;;5038376;28;20052;-73
2023/04/14 09:40:56;;;;;;;4.63;1.50;;;;;;;;;;5041762;28;20092;-74
2023/04/14 09:43:26;;;;;;;7.18;1.35;;;;;;;;;;5040717;28;24028;-74
2023/04/14 09:45:52;;;;;;;7.60;1.75;;;;;;;;;;5043118;28;20051;-73
2023/04/14 09:48:19;;;;;;;5.63;1.30;;;;;;;;;;5024394;28;20153;-73
2023/04/14 09:50:58;;;;;;;10.95;1.35;;;;;;;;;;5041928;28;20940;-73
2023/04/14 09:53:25;;;;;;;9.80;1.58;;;;;;;;;;5044417;28;20451;-74
2023/04/14 09:55:52;;;;;;;7.78;1.80;;;;;;;;;;5042730;28;20165;-74
2023/04/14 09:58:20;;;;;;;5.50;1.70;;;;;;;;;;5012176;28;20633;-73
2023/04/14 10:00:47;;;;;;;13.80;1.50;;;;;;;;;;5046107;28;20062;-73
2023/04/14 10:03:13;;;;;;;4.47;2.15;;;;;;;;;;5041029;28;20047;-73
2023/04/14 10:05:39;;;;;;;9.82;2.08;;;;;;;;;;5044308;28;20044;-73
2023/04/14 10:08:05;;;;;;;10.80;2.85;;;;;;;;;;5007745;28;20544;-73
2023/04/14 10:10:31;;;;;;;8.55;2.13;;;;;;;;;;5028384;28;20049;-73
2023/04/14 10:13:00;;;;;;;6.25;2.70;;;;;;;;;;5025986;28;20041;-72
2023/04/14 10:15:27;;;;;;;5.35;2.45;;;;;;;;;;5029364;28;20114;-73
2023/04/14 10:17:53;;;;;;;5.93;2.38;;;;;;;;;;5046533;28;20040;-73
2023/04/14 10:20:19;;;;;;;7.07;2.70;;;;;;;;;;5011481;28;20125;-74
2023/04/14 10:22:46;;;;;;;9.68;3.25;;;;;;;;;;5029908;28;20048;-74
2023/04/14 10:25:12;;;;;;;9.68;2.55;;;;;;;;;;5013243;28;20044;-74
2023/04/14 10:27:39;;;;;;;6.85;2.60;;;;;;;;;;5030245;28;20675;-73
2023/04/14 10:30:07;;;;;;;8.98;2.83;;;;;;;;;;5046474;28;20257;-74
2023/04/14 10:32:40;;;;;;;5.53;2.38;;;;;;;;;;4998095;28;20047;-74
2023/04/14 10:35:08;;;;;;;6.50;3.10;;;;;;;;;;5049961;28;20036;-74
2023/04/14 10:37:35;;;;;;;9.02;3.30;;;;;;;;;;5030862;28;20866;-74
2023/04/14 10:40:08;;;;;;;7.72;3.25;;;;;;;;;;5030663;28;20048;-75
2023/04/14 10:43:07;;;;;;;8.93;2.90;;;;;;;;;;5049631;28;20040;-75
2023/04/14 10:45:33;;;;;;;9.30;2.88;;;;;;;;;;4981071;28;20954;-75
2023/04/14 10:47:59;;;;;;;8.63;2.80;;;;;;;;;;5030092;28;20044;-75
2023/04/14 10:50:25;;;;;;;10.23;3.40;;;;;;;;;;5048171;28;20133;-74
2023/04/14 10:52:57;;;;;;;7.22;3.58;;;;;;;;;;5031417;28;20051;-75
2023/04/14 10:55:27;;;;;;;9.50;3.83;;;;;;;;;;5030365;28;20041;-74
2023/04/14 10:58:02;;;;;;;8.32;3.05;;;;;;;;;;5032026;28;20149;-75
2023/04/14 11:00:32;;;;;;;7.72;3.70;;;;;;;;;;5027556;28;20052;-74
2023/04/14 11:03:12;;;;;;;8.77;3.30;;;;;;;;;;5046866;28;20063;-74
2023/04/14 11:05:47;;;;;;;10.45;3.83;;;;;;;;;;5028966;28;20067;-75
2023/04/14 11:08:19;;;;;;;13.38;3.63;;;;;;;;;;5032359;28;20369;-74
2023/04/14 11:10:49;;;;;;;11.27;3.40;;;;;;;;;;5028605;28;20516;-75
2023/04/14 11:13:16;;;;;;;10.48;4.80;;;;;;;;;;5030798;28;20052;-76
2023/04/14 11:15:45;;;;;;;13.20;4.65;;;;;;;;;;5033186;28;20572;-75
2023/04/14 11:18:13;;;;;;;10.45;3.65;;;;;;;;;;5028994;28;20044;-75
2023/04/14 11:20:42;;;;;;;8.88;4.00;;;;;;;;;;5027304;28;20575;-74
2023/04/14 11:23:09;;;;;;;7.07;3.05;;;;;;;;;;5015144;28;20040;-74
2023/04/14 11:25:35;;;;;;;10.93;2.85;;;;;;;;;;5009865;28;20056;-74
2023/04/14 11:28:02;;;;;;;9.73;3.33;;;;;;;;;;5030656;28;20393;-74
2023/04/14 11:30:28;;;;;;;8.82;3.28;;;;;;;;;;5012562;28;20049;-74
2023/04/14 11:32:58;;;;;;;10.40;3.40;;;;;;;;;;5017469;28;20044;-75
2023/04/14 11:35:27;;;;;;;10.10;3.22;;;;;;;;;;5048614;28;20037;-74
2023/04/14 11:37:57;;;;;;;11.20;2.95;;;;;;;;;;5029587;28;20057;-74
2023/04/14 11:40:25;;;;;;;10.65;2.83;;;;;;;;;;5031587;28;20055;-75
2023/04/14 11:42:59;;;;;;;6.63;3.40;;;;;;;;;;5044109;28;20048;-74
2023/04/14 11:45:29;;;;;;;7.82;3.05;;;;;;;;;;5048877;28;20449;-75
2023/04/14 11:47:58;;;;;;;11.43;3.05;;;;;;;;;;5040395;28;20897;-75
2023/04/14 11:50:24;;;;;;;7.07;2.55;;;;;;;;;;5047623;28;20113;-77
2023/04/14 11:52:51;;;;;;;9.43;3.00;;;;;;;;;;5048532;28;20104;-78
2023/04/14 11:55:17;;;;;;;11.90;3.95;;;;;;;;;;5037421;28;20049;-79
2023/04/14 11:57:46;;;;;;;14.00;5.40;;;;;;;;;;5039672;28;20068;-79
2023/04/14 12:00:16;;;;;;;6.70;3.83;;;;;;;;;;5040042;28;20131;-79
2023/04/14 12:02:43;;;;;;;11.45;4.20;;;;;;;;;;5039544;28;20044;-77
2023/04/14 12:05:10;;;;;;;10.45;2.90;;;;;;;;;;5037743;28;20158;-78
2023/04/14 12:07:37;;;;;;;12.73;3.78;;;;;;;;;;5042414;28;20059;-77
2023/04/14 12:10:05;;;;;;;14.55;3.22;;;;;;;;;;5035336;28;20053;-77
2023/04/14 12:12:32;;;;;;;9.10;3.30;;;;;;;;;;5038768;28;20052;-76
2023/04/14 12:14:58;;;;;;;9.13;2.70;;;;;;;;;;5037971;28;20266;-77
2023/04/14 12:17:24;;;;;;;10.18;2.55;;;;;;;;;;5035393;28;20044;-77
2023/04/14 12:19:51;;;;;;;9.70;3.05;;;;;;;;;;5019318;28;20127;-77
2023/04/14 12:22:27;;;;;;;8.55;3.00;;;;;;;;;;5030463;28;20053;-77
2023/04/14 12:24:54;;;;;;;8.68;2.80;;;;;;;;;;5030342;28;20045;-78
2023/04/14 12:27:21;;;;;;;8.57;2.50;;;;;;;;;;5011386;28;20044;-77
2023/04/14 12:29:49;;;;;;;9.32;2.97;;;;;;;;;;5010990;28;20048;-77
2023/04/14 12:32:16;;;;;;;14.23;3.63;;;;;;;;;;5030768;28;20055;-77
2023/04/14 12:34:53;;;;;;;8.95;2.30;;;;;;;;;;5034178;28;20043;-76
2023/04/14 12:37:23;;;;;;;8.43;3.03;;;;;;;;;;5028681;28;20069;-76
2023/04/14 12:39:51;;;;;;;10.32;2.83;;;;;;;;;;5030391;28;20044;-77
2023/04/14 12:42:17;;;;;;;8.25;3.17;;;;;;;;;;5029824;28;20102;-77
2023/04/14 12:44:53;;;;;;;19.63;3.15;;;;;;;;;;5013414;28;20094;-77
2023/04/14 12:47:32;;;;;;;10.68;3.22;;;;;;;;;;5045901;28;20055;-76
2023/04/14 12:50:01;;;;;;;7.18;3.03;;;;;;;;;;5027109;28;20142;-76
2023/04/14 12:52:37;;;;;;;13.13;3.80;;;;;;;;;;5035848;28;20777;-77
2023/04/14 12:55:04;;;;;;;7.95;3.20;;;;;;;;;;5018752;28;20036;-76
2023/04/14 12:57:31;;;;;;;10.13;3.10;;;;;;;;;;5047131;28;20093;-78
2023/04/14 12:59:59;;;;;;;11.95;3.78;;;;;;;;;;5029160;28;20451;-76
2023/04/14 13:02:27;;;;;;;8.13;3.30;;;;;;;;;;5050959;28;20048;-76
2023/04/14 13:04:53;;;;;;;7.95;3.40;;;;;;;;;;5014580;28;20082;-75
2023/04/14 13:07:19;;;;;;;12.40;3.53;;;;;;;;;;5018891;28;20152;-76
2023/04/14 13:09:45;;;;;;;7.82;3.50;;;;;;;;;;5010061;28;20064;-77
2023/04/14 13:12:11;;;;;;;12.35;3.47;;;;;;;;;;5031142;28;20097;-77
2023/04/14 13:14:37;;;;;;;6.43;3.03;;;;;;;;;;5028011;28;20190;-78
2023/04/14 13:17:03;;;;;;;7.80;2.85;;;;;;;;;;5036665;28;20093;-78
2023/04/14 13:19:29;;;;;;;8.82;3.25;;;;;;;;;;5032755;28;20048;-77
2023/04/14 13:21:55;;;;;;;11.13;4.15;;;;;;;;;;5013062;28;20044;-77
2023/04/14 13:24:21;;;;;;;7.45;3.53;;;;;;;;;;5026332;28;20052;-77
2023/04/14 13:26:48;;;;;;;9.93;3.33;;;;;;;;;;5009733;28;20093;-77
2023/04/14 13:29:14;;;;;;;8.88;2.90;;;;;;;;;;5043412;28;20099;-76
2023/04/14 13:31:40;;;;;;;7.65;2.60;;;;;;;;;;5024675;28;20053;-76
2023/04/14 13:34:06;;;;;;;11.68;3.35;;;;;;;;;;5047034;28;20234;-78
2023/04/14 13:36:32;;;;;;;7.97;3.10;;;;;;;;;;5026631;28;20116;-77
2023/04/14 13:38:58;;;;;;;6.15;2.60;;;;;;;;;;5005956;28;20040;-76
2023/04/14 13:41:25;;;;;;;7.40;3.17;;;;;;;;;;5010907;28;20040;-77
2023/04/14 13:43:51;;;;;;;6.95;2.97;;;;;;;;;;5030651;28;20049;-78
2023/04/14 13:46:17;;;;;;;8.98;3.55;;;;;;;;;;5012479;28;20055;-77
2023/04/14 13:48:43;;;;;;;8.15;2.83;;;;;;;;;;5045874;28;20159;-77
2023/04/14 13:51:10;;;;;;;12.13;4.18;;;;;;;;;;5050573;28;20112;-77
2023/04/14 13:53:36;;;;;;;12.55;4.15;;;;;;;;;;5012160;28;20040;-77
2023/04/14 13:56:02;;;;;;;10.13;4.03;;;;;;;;;;5034133;28;20036;-77
2023/04/14 13:58:28;;;;;;;7.88;3.83;;;;;;;;;;5015668;28;20040;-77
2023/04/14 14:00:55;;;;;;;12.38;4.07;;;;;;;;;;5035061;28;20147;-76
2023/04/14 14:03:21;;;;;;;12.98;3.78;;;;;;;;;;5036321;28;20094;-76
2023/04/14 14:05:48;;;;;;;9.45;3.72;;;;;;;;;;5036824;28;20621;-77
2023/04/14 14:08:14;;;;;;;9.68;4.70;;;;;;;;;;5036117;28;20059;-76
2023/04/14 14:10:41;;;;;;;11.38;4.18;;;;;;;;;;5021480;28;20273;-76
2023/04/14 14:13:07;;;;;;;13.93;5.20;;;;;;;;;;5016076;28;20774;-76
2023/04/14 14:15:33;;;;;;;10.48;4.32;;;;;;;;;;5034977;28;20148;-77
2023/04/14 14:17:59;;;;;;;9.00;4.07;;;;;;;;;;5019934;28;20036;-76
2023/04/14 14:20:25;;;;;;;8.15;4.32;;;;;;;;;;5017981;28;20106;-76
2023/04/14 14:22:51;;;;;;;9.48;3.63;;;;;;;;;;5052387;28;20040;-77
2023/04/14 14:25:17;;;;;;;10.23;3.83;;;;;;;;;;5019523;28;20049;-77
2023/04/14 14:27:44;;;;;;;9.65;3.70;;;;;;;;;;5019804;28;20048;-77
2023/04/14 14:30:10;;;;;;;6.30;3.08;;;;;;;;;;5019359;28;20074;-76
2023/04/14 14:32:36;;;;;;;6.45;2.90;;;;;;;;;;5052834;28;20496;-76
2023/04/14 14:35:05;;;;;;;6.72;2.88;;;;;;;;;;5034746;28;21558;-77
2023/04/14 14:37:31;;;;;;;8.45;2.70;;;;;;;;;;5048295;28;20048;-75